Time;durP1;ratioP1;P1;durP2;ratioP2;P2;SDS_P1;SDS_P2;PMS_P1;PMS_P2;Temp;Humidity;BMP_temperature;BMP_pressure;BME280_temperature;BME280_humidity;BME280_pressure;Samples;Min_cycle;Max_cycle;Signal;HPM_P1;HPM_P2
2022/11/01 00:02:05;;;;;;;22.70;13.35;;;;;;;;;;4930819;28;20490;-71
2022/11/01 00:04:32;;;;;;;23.80;12.13;;;;;;;;;;4943094;28;20054;-71
2022/11/01 00:07:00;;;;;;;25.00;12.23;;;;;;;;;;4944231;29;20554;-71
2022/11/01 00:09:28;;;;;;;29.52;13.10;;;;;;;;;;4947277;29;20055;-71
2022/11/01 00:11:55;;;;;;;27.45;11.68;;;;;;;;;;4927272;29;20055;-71
2022/11/01 00:14:22;;;;;;;22.55;11.48;;;;;;;;;;4929214;29;20063;-71
2022/11/01 00:16:50;;;;;;;25.75;11.60;;;;;;;;;;4941712;29;20095;-72
2022/11/01 00:19:18;;;;;;;29.30;11.45;;;;;;;;;;4941588;29;20520;-71
2022/11/01 00:21:45;;;;;;;19.65;11.35;;;;;;;;;;4928388;29;20159;-71
2022/11/01 00:24:14;;;;;;;24.02;11.68;;;;;;;;;;4927964;29;20060;-71
2022/11/01 00:26:41;;;;;;;20.80;10.73;;;;;;;;;;4946027;29;20051;-72
2022/11/01 00:29:08;;;;;;;21.67;11.10;;;;;;;;;;4941656;29;20363;-71
2022/11/01 00:31:36;;;;;;;32.35;11.00;;;;;;;;;;4943080;29;20067;-71
2022/11/01 00:34:04;;;;;;;25.17;11.05;;;;;;;;;;4946244;29;20115;-72
2022/11/01 00:36:32;;;;;;;21.40;11.07;;;;;;;;;;4927020;29;20254;-72
2022/11/01 00:38:59;;;;;;;19.13;9.95;;;;;;;;;;4942176;29;20058;-71
2022/11/01 00:41:28;;;;;;;23.75;10.65;;;;;;;;;;4926233;29;20055;-71
2022/11/01 00:43:55;;;;;;;19.48;10.68;;;;;;;;;;4930378;29;20063;-71
2022/11/01 00:46:22;;;;;;;20.48;10.27;;;;;;;;;;4945230;29;20054;-71
2022/11/01 00:48:50;;;;;;;20.90;10.20;;;;;;;;;;4944729;29;20051;-72
2022/11/01 00:51:17;;;;;;;27.73;10.68;;;;;;;;;;4943935;29;20103;-71
2022/11/01 00:53:44;;;;;;;24.13;9.70;;;;;;;;;;4927820;29;20055;-71
2022/11/01 00:56:11;;;;;;;27.83;10.82;;;;;;;;;;4928290;29;20051;-71
2022/11/01 00:58:40;;;;;;;23.17;9.90;;;;;;;;;;4930677;29;20493;-71
2022/11/01 01:01:07;;;;;;;24.98;9.77;;;;;;;;;;4929462;29;20426;-72
2022/11/01 01:03:35;;;;;;;20.60;10.02;;;;;;;;;;4945453;28;20051;-71
2022/11/01 01:06:02;;;;;;;18.00;9.95;;;;;;;;;;4924226;29;20061;-71
2022/11/01 01:08:29;;;;;;;24.00;10.18;;;;;;;;;;4942993;29;20061;-72
2022/11/01 01:10:57;;;;;;;24.55;10.52;;;;;;;;;;4944245;29;20058;-71
2022/11/01 01:13:24;;;;;;;23.52;11.02;;;;;;;;;;4929502;29;20051;-71
2022/11/01 01:15:52;;;;;;;19.40;9.70;;;;;;;;;;4924286;29;20063;-72
2022/11/01 01:18:20;;;;;;;22.70;9.65;;;;;;;;;;4949255;29;20066;-71
2022/11/01 01:20:47;;;;;;;28.58;9.80;;;;;;;;;;4944265;29;20055;-70
2022/11/01 01:23:14;;;;;;;20.30;9.65;;;;;;;;;;4950391;29;20053;-71
2022/11/01 01:25:42;;;;;;;23.48;9.48;;;;;;;;;;4933888;29;20070;-71
2022/11/01 01:28:09;;;;;;;27.00;9.52;;;;;;;;;;4929498;29;20135;-71
2022/11/01 01:30:39;;;;;;;26.60;10.48;;;;;;;;;;4926615;29;20118;-71
2022/11/01 01:33:08;;;;;;;21.38;9.95;;;;;;;;;;4942879;29;20059;-71
2022/11/01 01:35:35;;;;;;;25.60;10.40;;;;;;;;;;4943307;29;20043;-71
2022/11/01 01:38:03;;;;;;;24.40;10.90;;;;;;;;;;4927110;29;20055;-71
2022/11/01 01:40:30;;;;;;;28.60;10.93;;;;;;;;;;4947370;29;20076;-71
2022/11/01 01:42:57;;;;;;;25.45;9.75;;;;;;;;;;4948614;29;20130;-71
2022/11/01 01:45:33;;;;;;;22.48;8.82;;;;;;;;;;4942381;29;20055;-72
2022/11/01 01:48:07;;;;;;;20.13;9.70;;;;;;;;;;4931536;29;20063;-71
2022/11/01 01:50:38;;;;;;;18.98;8.75;;;;;;;;;;4943484;29;20087;-71
2022/11/01 01:53:07;;;;;;;24.95;10.25;;;;;;;;;;4929820;29;20051;-71
2022/11/01 01:55:37;;;;;;;24.60;10.10;;;;;;;;;;4948708;29;20094;-71
2022/11/01 01:58:04;;;;;;;18.63;9.43;;;;;;;;;;4946251;29;20066;-71
2022/11/01 02:00:32;;;;;;;20.38;8.25;;;;;;;;;;4933974;29;20059;-71
2022/11/01 02:02:59;;;;;;;17.70;8.73;;;;;;;;;;4933597;28;20851;-70
2022/11/01 02:05:33;;;;;;;20.40;9.45;;;;;;;;;;4933004;29;20067;-70
2022/11/01 02:08:00;;;;;;;;;;;;;;;;;;4947853;29;20055;-71
2022/11/01 02:10:29;;;;;;;17.95;8.85;;;;;;;;;;4948712;29;19926;-71
2022/11/01 02:12:57;;;;;;;16.65;8.20;;;;;;;;;;4930339;29;20052;-71
2022/11/01 02:15:27;;;;;;;18.10;8.18;;;;;;;;;;4930094;29;20066;-71
2022/11/01 02:17:59;;;;;;;16.17;7.88;;;;;;;;;;4930702;29;20051;-70
2022/11/01 02:20:43;;;;;;;18.13;7.47;;;;;;;;;;4930672;29;20154;-71
2022/11/01 02:23:35;;;;;;;23.77;7.88;;;;;;;;;;4948925;29;20043;-70
2022/11/01 02:26:10;;;;;;;21.25;7.88;;;;;;;;;;4930060;29;20510;-71
2022/11/01 02:28:44;;;;;;;19.65;7.53;;;;;;;;;;4948245;29;20541;-71
2022/11/01 02:31:18;;;;;;;19.23;7.60;;;;;;;;;;4932516;29;20058;-71
2022/11/01 02:33:49;;;;;;;17.90;7.28;;;;;;;;;;4947448;29;20050;-70
2022/11/01 02:36:20;;;;;;;16.85;7.78;;;;;;;;;;4948121;29;20048;-71
2022/11/01 02:38:49;;;;;;;15.48;7.82;;;;;;;;;;4948737;29;20051;-71
2022/11/01 02:41:19;;;;;;;15.93;7.72;;;;;;;;;;4948122;29;20465;-71
2022/11/01 02:43:48;;;;;;;17.02;7.38;;;;;;;;;;4945317;29;20639;-70
2022/11/01 02:49:03;;;;;;;18.75;7.90;;;;;;;;;;4930173;29;20406;-71
2022/11/01 02:51:30;;;;;;;17.85;7.22;;;;;;;;;;4946307;29;20499;-71
2022/11/01 02:54:01;;;;;;;23.30;7.80;;;;;;;;;;4946193;29;20110;-70
2022/11/01 02:56:28;;;;;;;15.18;7.43;;;;;;;;;;4943298;29;20102;-70
2022/11/01 02:58:56;;;;;;;20.35;7.90;;;;;;;;;;4923352;29;20058;-71
2022/11/01 03:01:25;;;;;;;16.48;7.15;;;;;;;;;;4948065;29;20066;-71
2022/11/01 03:03:54;;;;;;;18.83;7.43;;;;;;;;;;4932183;28;20070;-71
2022/11/01 03:06:24;;;;;;;13.18;6.93;;;;;;;;;;4948051;29;20047;-71
2022/11/01 03:08:56;;;;;;;24.70;6.90;;;;;;;;;;4944435;29;20407;-71
2022/11/01 03:11:24;;;;;;;17.05;7.35;;;;;;;;;;4946786;29;20062;-71
2022/11/01 03:13:56;;;;;;;17.80;6.90;;;;;;;;;;4948876;29;20058;-71
2022/11/01 03:16:26;;;;;;;18.75;6.68;;;;;;;;;;4947757;28;20043;-71
2022/11/01 03:19:08;;;;;;;18.65;6.45;;;;;;;;;;4948676;29;20051;-70
2022/11/01 03:21:40;;;;;;;15.77;6.57;;;;;;;;;;4944581;29;20506;-70
2022/11/01 03:24:11;;;;;;;13.70;6.68;;;;;;;;;;4945071;29;20147;-71
2022/11/01 03:26:39;;;;;;;15.52;6.45;;;;;;;;;;4948183;29;20051;-70
2022/11/01 03:29:08;;;;;;;17.95;6.20;;;;;;;;;;4947129;29;20059;-71
2022/11/01 03:31:38;;;;;;;15.10;6.05;;;;;;;;;;4927836;29;20138;-71
2022/11/01 03:34:07;;;;;;;14.70;5.95;;;;;;;;;;4947513;29;20050;-70
2022/11/01 03:36:37;;;;;;;18.00;6.70;;;;;;;;;;4944448;28;20455;-71
2022/11/01 03:39:10;;;;;;;15.98;7.38;;;;;;;;;;4931342;29;20047;-70
2022/11/01 03:41:42;;;;;;;19.10;6.32;;;;;;;;;;4929071;29;20063;-70
2022/11/01 03:44:12;;;;;;;9.75;5.55;;;;;;;;;;4931653;29;20410;-71
2022/11/01 03:46:39;;;;;;;14.57;6.07;;;;;;;;;;4945366;29;20356;-71
2022/11/01 03:49:06;;;;;;;15.82;6.10;;;;;;;;;;4932354;29;20077;-71
2022/11/01 03:51:34;;;;;;;17.17;6.10;;;;;;;;;;4927102;29;20062;-71
2022/11/01 03:54:01;;;;;;;16.98;6.47;;;;;;;;;;4946302;29;20059;-71
2022/11/01 03:56:29;;;;;;;14.27;6.75;;;;;;;;;;4942770;29;20529;-71
2022/11/01 03:58:56;;;;;;;16.27;5.70;;;;;;;;;;4928120;29;20480;-71
2022/11/01 04:01:24;;;;;;;18.20;6.80;;;;;;;;;;4945483;29;20498;-72
2022/11/01 04:03:51;;;;;;;19.52;5.85;;;;;;;;;;4927209;29;20129;-71
2022/11/01 04:06:18;;;;;;;14.10;6.03;;;;;;;;;;4927869;29;20055;-71
2022/11/01 04:08:45;;;;;;;18.65;5.88;;;;;;;;;;4948358;29;20490;-71
2022/11/01 04:11:12;;;;;;;16.98;5.97;;;;;;;;;;4945781;29;20055;-72
2022/11/01 04:13:42;;;;;;;12.68;5.60;;;;;;;;;;4931143;29;20137;-72
2022/11/01 04:21:42;;;;;;;14.82;5.97;;;;;;;;;;4917062;29;20138;-71
2022/11/01 04:24:09;;;;;;;17.58;6.15;;;;;;;;;;4930734;29;20143;-71
2022/11/01 04:26:37;;;;;;;12.60;5.03;;;;;;;;;;4930506;29;20059;-71
2022/11/01 04:29:05;;;;;;;12.20;5.32;;;;;;;;;;4929933;29;20491;-72
2022/11/01 04:31:33;;;;;;;11.57;5.22;;;;;;;;;;4930478;29;20055;-71
2022/11/01 04:34:01;;;;;;;13.13;5.05;;;;;;;;;;4946435;29;20397;-72
2022/11/01 04:36:28;;;;;;;10.70;4.90;;;;;;;;;;4928939;29;20055;-71
2022/11/01 04:38:56;;;;;;;17.67;5.57;;;;;;;;;;4946753;29;20556;-71
2022/11/01 04:41:24;;;;;;;10.23;4.63;;;;;;;;;;4945556;29;20379;-71
2022/11/01 04:43:53;;;;;;;14.27;4.95;;;;;;;;;;4942103;29;20058;-70
2022/11/01 04:46:22;;;;;;;12.10;4.32;;;;;;;;;;4946591;29;20055;-72
2022/11/01 04:48:49;;;;;;;9.45;4.38;;;;;;;;;;4926742;29;20050;-70
2022/11/01 04:51:16;;;;;;;13.93;3.88;;;;;;;;;;4929632;29;20058;-71
2022/11/01 04:53:44;;;;;;;11.32;3.75;;;;;;;;;;4926721;29;20047;-71
2022/11/01 04:56:12;;;;;;;11.13;3.42;;;;;;;;;;4944596;29;20055;-71
2022/11/01 04:58:40;;;;;;;16.15;3.22;;;;;;;;;;4946869;29;20134;-71
2022/11/01 05:01:07;;;;;;;10.88;3.05;;;;;;;;;;4930468;29;20059;-71
2022/11/01 05:03:36;;;;;;;9.30;2.78;;;;;;;;;;4945930;28;20363;-72
2022/11/01 05:06:03;;;;;;;7.63;2.47;;;;;;;;;;4930577;29;20070;-71
2022/11/01 05:08:30;;;;;;;6.75;2.20;;;;;;;;;;4930089;29;20066;-69
2022/11/01 05:10:57;;;;;;;11.70;3.35;;;;;;;;;;4921792;29;20466;-72
2022/11/01 05:13:25;;;;;;;8.38;2.35;;;;;;;;;;4923076;29;20048;-71
2022/11/01 05:15:52;;;;;;;10.20;1.83;;;;;;;;;;4925078;29;20051;-72
2022/11/01 05:18:19;;;;;;;8.13;2.15;;;;;;;;;;4923597;29;20055;-72
2022/11/01 05:20:48;;;;;;;7.40;1.90;;;;;;;;;;4927902;29;20063;-72
2022/11/01 05:23:15;;;;;;;5.15;1.60;;;;;;;;;;4928126;29;20546;-72
2022/11/01 05:25:42;;;;;;;7.93;1.75;;;;;;;;;;4929009;29;20688;-71
2022/11/01 05:28:13;;;;;;;5.82;1.85;;;;;;;;;;4924997;29;20060;-71
2022/11/01 05:30:41;;;;;;;6.72;1.67;;;;;;;;;;4927177;29;20082;-71
2022/11/01 05:33:08;;;;;;;8.73;1.70;;;;;;;;;;4928920;29;20055;-72
2022/11/01 05:35:36;;;;;;;11.85;2.03;;;;;;;;;;4945629;29;20063;-71
2022/11/01 05:38:05;;;;;;;8.52;1.20;;;;;;;;;;4929191;29;20071;-72
2022/11/01 05:40:33;;;;;;;6.57;1.33;;;;;;;;;;4920937;29;20166;-72
2022/11/01 05:43:00;;;;;;;6.07;1.10;;;;;;;;;;4941022;29;20047;-72
2022/11/01 05:45:27;;;;;;;5.30;1.20;;;;;;;;;;4931302;29;20509;-71
2022/11/01 05:47:55;;;;;;;5.72;1.52;;;;;;;;;;4946216;29;20047;-71
2022/11/01 05:50:22;;;;;;;7.32;1.10;;;;;;;;;;4945951;29;20051;-72
2022/11/01 05:52:50;;;;;;;9.18;1.17;;;;;;;;;;4929438;29;20525;-72
2022/11/01 05:55:18;;;;;;;7.45;1.15;;;;;;;;;;4944992;29;20062;-72
2022/11/01 05:57:45;;;;;;;10.43;1.35;;;;;;;;;;4926797;29;20062;-71
2022/11/01 06:00:13;;;;;;;9.35;1.40;;;;;;;;;;4928940;29;20051;-71
2022/11/01 06:02:40;;;;;;;9.95;1.60;;;;;;;;;;4931501;29;20051;-70
2022/11/01 06:05:08;;;;;;;8.73;1.63;;;;;;;;;;4945358;29;20515;-71
2022/11/01 06:07:35;;;;;;;18.92;1.52;;;;;;;;;;4931687;29;20401;-70
2022/11/01 06:10:03;;;;;;;14.10;1.70;;;;;;;;;;4947594;29;20106;-72
2022/11/01 06:12:32;;;;;;;10.23;1.20;;;;;;;;;;4928815;29;20059;-71
2022/11/01 06:14:59;;;;;;;9.57;1.30;;;;;;;;;;4926695;29;20065;-71
2022/11/01 06:17:26;;;;;;;10.45;1.38;;;;;;;;;;4948124;29;20408;-72
2022/11/01 06:19:53;;;;;;;11.00;1.25;;;;;;;;;;4927507;29;20063;-73
2022/11/01 06:22:21;;;;;;;12.13;1.85;;;;;;;;;;4948617;29;20047;-73
2022/11/01 06:24:48;;;;;;;12.13;2.50;;;;;;;;;;4928889;29;20061;-70
2022/11/01 06:27:15;;;;;;;11.18;1.85;;;;;;;;;;4927917;29;20517;-71
2022/11/01 06:29:44;;;;;;;15.55;1.90;;;;;;;;;;4921404;29;20462;-73
2022/11/01 06:32:11;;;;;;;16.52;2.05;;;;;;;;;;4925648;29;20051;-73
2022/11/01 06:34:39;;;;;;;9.15;1.58;;;;;;;;;;4932114;29;20497;-72
2022/11/01 06:37:06;;;;;;;12.88;1.92;;;;;;;;;;4928111;29;20059;-70
2022/11/01 06:39:33;;;;;;;13.18;1.80;;;;;;;;;;4935499;29;20502;-72
2022/11/01 06:42:00;;;;;;;10.50;1.90;;;;;;;;;;4923069;29;20055;-72
2022/11/01 06:44:27;;;;;;;9.07;1.63;;;;;;;;;;4931551;29;20525;-72
2022/11/01 06:46:56;;;;;;;10.85;1.60;;;;;;;;;;4931882;29;20047;-72
2022/11/01 06:49:23;;;;;;;15.10;1.77;;;;;;;;;;4932232;29;20054;-71
2022/11/01 06:51:51;;;;;;;12.57;1.50;;;;;;;;;;4947338;29;20066;-72
2022/11/01 06:54:18;;;;;;;14.13;1.63;;;;;;;;;;4925788;29;20396;-73
2022/11/01 06:56:47;;;;;;;12.88;1.90;;;;;;;;;;4927668;29;20047;-72
2022/11/01 06:59:15;;;;;;;13.95;2.25;;;;;;;;;;4931468;29;20099;-72
2022/11/01 07:01:42;;;;;;;15.57;1.63;;;;;;;;;;4947093;29;20062;-71
2022/11/01 07:04:11;;;;;;;14.18;2.00;;;;;;;;;;4947943;28;20489;-73
2022/11/01 07:06:38;;;;;;;19.08;2.22;;;;;;;;;;4929072;29;20797;-72
2022/11/01 07:09:06;;;;;;;12.85;2.30;;;;;;;;;;4947774;29;20050;-72
2022/11/01 07:11:33;;;;;;;13.15;2.90;;;;;;;;;;4943684;28;20387;-71
2022/11/01 07:14:00;;;;;;;17.15;1.98;;;;;;;;;;4945898;29;20063;-73
2022/11/01 07:16:28;;;;;;;14.98;2.47;;;;;;;;;;4931343;29;20058;-71
2022/11/01 07:18:55;;;;;;;16.05;2.65;;;;;;;;;;4932610;29;20055;-72
2022/11/01 07:21:24;;;;;;;17.75;2.30;;;;;;;;;;4930387;29;20418;-72
2022/11/01 07:23:52;;;;;;;12.90;1.60;;;;;;;;;;4929634;29;20537;-73
2022/11/01 07:26:20;;;;;;;18.25;2.90;;;;;;;;;;4942178;29;20527;-72
2022/11/01 07:28:47;;;;;;;20.33;2.97;;;;;;;;;;4929262;29;20060;-71
2022/11/01 07:31:14;;;;;;;22.42;2.10;;;;;;;;;;4928835;29;20525;-73
2022/11/01 07:33:42;;;;;;;15.63;2.28;;;;;;;;;;4932762;29;20047;-71
2022/11/01 07:36:09;;;;;;;16.88;2.58;;;;;;;;;;4926634;29;20062;-72
2022/11/01 07:38:38;;;;;;;16.90;2.13;;;;;;;;;;4928443;29;21185;-72
2022/11/01 07:41:05;;;;;;;15.15;2.17;;;;;;;;;;4946851;29;20494;-71
2022/11/01 07:43:34;;;;;;;18.88;2.47;;;;;;;;;;4929106;29;20126;-70
2022/11/01 07:46:05;;;;;;;19.67;2.35;;;;;;;;;;4929033;29;20086;-69
2022/11/01 07:48:35;;;;;;;15.98;2.40;;;;;;;;;;4926415;29;20058;-72
2022/11/01 07:51:04;;;;;;;22.23;2.30;;;;;;;;;;4947515;29;20142;-70
2022/11/01 07:53:32;;;;;;;21.15;2.60;;;;;;;;;;4928517;29;20062;-70
2022/11/01 07:56:02;;;;;;;17.58;2.85;;;;;;;;;;4927529;29;20059;-71
2022/11/01 07:58:29;;;;;;;21.85;2.95;;;;;;;;;;4931948;29;20074;-71
2022/11/01 08:00:56;;;;;;;16.77;2.53;;;;;;;;;;4929994;29;20054;-72
2022/11/01 08:03:23;;;;;;;21.27;3.35;;;;;;;;;;4945988;28;20360;-71
2022/11/01 08:05:51;;;;;;;28.00;4.03;;;;;;;;;;4928375;29;20066;-71
2022/11/01 08:08:18;;;;;;;20.88;3.40;;;;;;;;;;4928835;29;20405;-71
2022/11/01 08:10:46;;;;;;;18.55;3.22;;;;;;;;;;4926400;29;20056;-71
2022/11/01 08:13:17;;;;;;;20.38;3.17;;;;;;;;;;4946199;29;20502;-72
2022/11/01 08:15:44;;;;;;;18.75;3.00;;;;;;;;;;4925019;29;20055;-71
2022/11/01 08:18:11;;;;;;;21.73;2.88;;;;;;;;;;4927401;29;20059;-69
2022/11/01 08:20:39;;;;;;;23.10;2.65;;;;;;;;;;4923734;29;20067;-71
2022/11/01 08:23:07;;;;;;;24.35;3.90;;;;;;;;;;4927999;29;20043;-71
2022/11/01 08:25:34;;;;;;;19.88;2.72;;;;;;;;;;4927393;29;20052;-73
2022/11/01 08:28:02;;;;;;;20.60;3.13;;;;;;;;;;4922776;29;20055;-71
2022/11/01 08:30:31;;;;;;;24.55;3.15;;;;;;;;;;4925888;29;20134;-69
2022/11/01 08:32:59;;;;;;;21.75;3.60;;;;;;;;;;4927517;29;20059;-72
2022/11/01 08:35:26;;;;;;;26.42;3.60;;;;;;;;;;4925898;29;20060;-73
2022/11/01 08:37:54;;;;;;;20.17;3.00;;;;;;;;;;4925636;29;20051;-72
2022/11/01 08:40:22;;;;;;;22.48;3.72;;;;;;;;;;4922885;29;20070;-71
2022/11/01 08:42:49;;;;;;;27.13;3.88;;;;;;;;;;4925625;29;20517;-70
2022/11/01 08:45:17;;;;;;;19.23;2.55;;;;;;;;;;4923953;29;20056;-69
2022/11/01 08:47:46;;;;;;;20.50;3.10;;;;;;;;;;4926389;29;20056;-71
2022/11/01 08:50:14;;;;;;;26.63;3.78;;;;;;;;;;4925053;29;20140;-72
2022/11/01 08:52:41;;;;;;;23.30;2.90;;;;;;;;;;4925169;29;20043;-71
2022/11/01 08:55:10;;;;;;;23.88;3.63;;;;;;;;;;4927020;29;20043;-70
2022/11/01 08:57:38;;;;;;;19.83;3.00;;;;;;;;;;4919524;29;20479;-72
2022/11/01 09:00:06;;;;;;;20.92;3.70;;;;;;;;;;4924949;29;20051;-71
2022/11/01 09:02:33;;;;;;;19.15;3.55;;;;;;;;;;4924488;29;20495;-70
2022/11/01 09:05:05;;;;;;;25.00;3.92;;;;;;;;;;4923750;29;20055;-72
2022/11/01 09:07:33;;;;;;;25.05;4.03;;;;;;;;;;4920572;29;20067;-71
2022/11/01 09:10:00;;;;;;;26.95;3.10;;;;;;;;;;4924830;29;20589;-72
2022/11/01 09:12:27;;;;;;;30.15;3.85;;;;;;;;;;4922870;29;20064;-73
2022/11/01 09:14:54;;;;;;;30.52;4.43;;;;;;;;;;4925876;29;20047;-72
2022/11/01 09:17:22;;;;;;;30.73;4.10;;;;;;;;;;4922482;29;20063;-71
2022/11/01 09:19:49;;;;;;;29.23;4.72;;;;;;;;;;4923742;29;20062;-78
2022/11/01 09:22:18;;;;;;;27.50;4.13;;;;;;;;;;4925429;29;20067;-72
2022/11/01 09:24:45;;;;;;;29.63;4.05;;;;;;;;;;4924733;29;20067;-71
2022/11/01 09:27:12;;;;;;;29.05;4.07;;;;;;;;;;4924950;29;20051;-72
2022/11/01 09:29:40;;;;;;;30.77;4.20;;;;;;;;;;4921083;29;20064;-73
2022/11/01 09:32:08;;;;;;;26.42;3.17;;;;;;;;;;4922492;29;20055;-71
2022/11/01 09:34:35;;;;;;;30.45;4.38;;;;;;;;;;4924764;29;20456;-71
2022/11/01 09:37:03;;;;;;;27.85;3.83;;;;;;;;;;4925221;29;20592;-72
2022/11/01 09:39:32;;;;;;;26.05;3.50;;;;;;;;;;4924078;29;20063;-72
2022/11/01 09:42:00;;;;;;;23.15;3.58;;;;;;;;;;4927517;29;20419;-72
2022/11/01 09:44:30;;;;;;;26.08;3.58;;;;;;;;;;4926748;29;20055;-72
2022/11/01 09:46:59;;;;;;;21.67;3.65;;;;;;;;;;4923185;29;20060;-71
2022/11/01 09:49:30;;;;;;;21.13;3.75;;;;;;;;;;4929116;29;20455;-73
2022/11/01 09:51:57;;;;;;;21.23;3.20;;;;;;;;;;4927209;29;20052;-72
2022/11/01 09:54:25;;;;;;;24.27;3.95;;;;;;;;;;4923723;29;20560;-71
2022/11/01 09:56:59;;;;;;;24.38;3.45;;;;;;;;;;4928181;29;20055;-70
2022/11/01 09:59:29;;;;;;;25.83;3.95;;;;;;;;;;4929009;29;20086;-72
2022/11/01 10:02:02;;;;;;;30.50;3.95;;;;;;;;;;4927942;29;20064;-71
2022/11/01 10:04:36;;;;;;;20.60;3.60;;;;;;;;;;4926243;29;20075;-70
2022/11/01 10:07:07;;;;;;;23.23;3.40;;;;;;;;;;4926473;29;20731;-71
2022/11/01 10:09:39;;;;;;;26.63;3.25;;;;;;;;;;4922424;29;20048;-72
2022/11/01 10:12:15;;;;;;;27.08;4.50;;;;;;;;;;4925219;29;20047;-72
2022/11/01 10:14:48;;;;;;;27.75;3.45;;;;;;;;;;4931000;29;20043;-71
2022/11/01 10:17:16;;;;;;;30.00;3.63;;;;;;;;;;4928585;29;20047;-70
2022/11/01 10:19:46;;;;;;;27.70;3.30;;;;;;;;;;4929944;29;20055;-71
2022/11/01 10:22:15;;;;;;;26.17;2.85;;;;;;;;;;4928792;29;20071;-73
2022/11/01 10:24:45;;;;;;;23.02;3.28;;;;;;;;;;4930283;29;20084;-70
2022/11/01 10:27:18;;;;;;;23.02;3.13;;;;;;;;;;4931007;29;20056;-71
2022/11/01 10:29:48;;;;;;;21.90;4.03;;;;;;;;;;4922481;29;20059;-72
2022/11/01 10:32:20;;;;;;;21.80;3.20;;;;;;;;;;4930052;29;20058;-72
2022/11/01 10:34:48;;;;;;;23.70;3.90;;;;;;;;;;4930232;29;20055;-70
2022/11/01 10:37:19;;;;;;;20.63;2.70;;;;;;;;;;4929958;29;20043;-69
2022/11/01 10:39:49;;;;;;;30.30;3.83;;;;;;;;;;4930248;29;20102;-69
2022/11/01 10:42:18;;;;;;;18.25;3.00;;;;;;;;;;4928740;29;20417;-70
2022/11/01 10:44:47;;;;;;;20.50;2.70;;;;;;;;;;4926734;29;20487;-70
2022/11/01 10:47:17;;;;;;;22.02;2.88;;;;;;;;;;4926567;28;20074;-71
2022/11/01 10:49:47;;;;;;;23.08;3.05;;;;;;;;;;4923637;29;20052;-72
2022/11/01 10:52:16;;;;;;;22.70;3.35;;;;;;;;;;4929404;29;20054;-70
2022/11/01 10:54:44;;;;;;;17.92;2.90;;;;;;;;;;4926325;29;20066;-70
2022/11/01 10:57:14;;;;;;;24.02;3.30;;;;;;;;;;4927459;29;20062;-72
2022/11/01 10:59:45;;;;;;;21.02;3.03;;;;;;;;;;4929360;29;20053;-70
2022/11/01 11:02:15;;;;;;;20.58;2.92;;;;;;;;;;4926028;29;20059;-72
2022/11/01 11:04:43;;;;;;;19.05;2.85;;;;;;;;;;4927165;29;20415;-72
2022/11/01 11:07:13;;;;;;;21.58;3.17;;;;;;;;;;4922775;29;20052;-71
2022/11/01 11:09:40;;;;;;;24.67;3.53;;;;;;;;;;4929816;29;20070;-70
2022/11/01 11:12:10;;;;;;;14.70;3.00;;;;;;;;;;4929624;29;20054;-71
2022/11/01 11:14:38;;;;;;;20.33;3.35;;;;;;;;;;4929786;29;20060;-71
2022/11/01 11:17:10;;;;;;;20.52;3.00;;;;;;;;;;4925270;29;20051;-70
2022/11/01 11:19:38;;;;;;;16.37;2.63;;;;;;;;;;4929654;29;20065;-70
2022/11/01 11:22:07;;;;;;;23.05;4.10;;;;;;;;;;4942416;29;20063;-70
2022/11/01 11:24:35;;;;;;;24.05;3.10;;;;;;;;;;4945061;29;20062;-72
2022/11/01 11:27:04;;;;;;;23.00;3.72;;;;;;;;;;4932771;29;20058;-71
2022/11/01 11:29:39;;;;;;;24.27;4.07;;;;;;;;;;4930377;29;20740;-72
2022/11/01 11:32:14;;;;;;;24.77;3.58;;;;;;;;;;4948265;29;20047;-72
2022/11/01 11:34:41;;;;;;;19.08;2.92;;;;;;;;;;4947797;29;20137;-72
2022/11/01 11:37:15;;;;;;;18.83;3.67;;;;;;;;;;4932234;29;20055;-72
2022/11/01 11:39:58;;;;;;;24.05;3.53;;;;;;;;;;4929049;29;20057;-71
2022/11/01 11:42:26;;;;;;;24.77;4.38;;;;;;;;;;4930167;29;20055;-71
2022/11/01 11:44:54;;;;;;;16.20;2.63;;;;;;;;;;4945069;29;20078;-71
2022/11/01 11:47:24;;;;;;;19.75;2.72;;;;;;;;;;4940432;29;20071;-71
2022/11/01 11:49:52;;;;;;;19.35;3.00;;;;;;;;;;4920726;29;20063;-71
2022/11/01 11:52:21;;;;;;;19.48;3.00;;;;;;;;;;4943541;29;20519;-72
2022/11/01 11:54:49;;;;;;;21.23;2.85;;;;;;;;;;4927070;29;20051;-72
2022/11/01 11:57:18;;;;;;;21.00;3.33;;;;;;;;;;4943514;29;20055;-71
2022/11/01 11:59:46;;;;;;;24.58;3.45;;;;;;;;;;4946307;29;20047;-71
2022/11/01 12:02:18;;;;;;;18.05;3.20;;;;;;;;;;4945093;29;20051;-72
2022/11/01 12:04:48;;;;;;;17.20;2.53;;;;;;;;;;4945341;28;20043;-71
2022/11/01 12:07:33;;;;;;;21.80;2.85;;;;;;;;;;4946344;29;20079;-71
2022/11/01 12:10:02;;;;;;;14.85;2.50;;;;;;;;;;4943233;29;20498;-71
2022/11/01 12:12:30;;;;;;;16.00;2.50;;;;;;;;;;4945797;29;20055;-71
2022/11/01 12:14:58;;;;;;;16.00;2.95;;;;;;;;;;4926729;29;20357;-71
2022/11/01 12:17:33;;;;;;;21.50;3.25;;;;;;;;;;4944344;29;20057;-70
2022/11/01 12:20:08;;;;;;;15.30;2.83;;;;;;;;;;4945226;29;20062;-71
2022/11/01 12:22:36;;;;;;;25.33;3.40;;;;;;;;;;4945705;29;20051;-71
2022/11/01 12:25:05;;;;;;;17.80;2.85;;;;;;;;;;4942680;29;20039;-72
2022/11/01 12:27:33;;;;;;;16.08;2.88;;;;;;;;;;4943979;29;20059;-70
2022/11/01 12:30:03;;;;;;;20.55;2.65;;;;;;;;;;4926316;29;20118;-71
2022/11/01 12:32:34;;;;;;;18.17;3.22;;;;;;;;;;4944262;29;20056;-71
2022/11/01 12:35:04;;;;;;;15.55;2.92;;;;;;;;;;4943510;29;20598;-71
2022/11/01 12:37:34;;;;;;;13.05;2.17;;;;;;;;;;4946610;29;20059;-72
2022/11/01 12:40:03;;;;;;;15.57;2.38;;;;;;;;;;5366681;23;20058;-71
2022/11/01 12:42:34;;;;;;;14.63;2.72;;;;;;;;;;4956812;28;20050;-70
2022/11/01 12:45:03;;;;;;;18.02;2.83;;;;;;;;;;4960687;28;20055;-71
2022/11/01 12:47:36;;;;;;;15.90;3.20;;;;;;;;;;4946711;28;20710;-72
2022/11/01 12:50:06;;;;;;;15.70;2.50;;;;;;;;;;4960243;28;20456;-71
2022/11/01 12:52:39;;;;;;;20.55;2.92;;;;;;;;;;4937800;28;20050;-71
2022/11/01 12:55:09;;;;;;;14.70;3.15;;;;;;;;;;4963998;28;20477;-70
2022/11/01 12:57:37;;;;;;;23.23;3.28;;;;;;;;;;4959120;28;20513;-70
2022/11/01 13:00:05;;;;;;;18.77;2.70;;;;;;;;;;4962427;28;20054;-71
2022/11/01 13:02:48;;;;;;;17.85;3.17;;;;;;;;;;4957023;28;20405;-70
2022/11/01 13:05:20;;;;;;;16.92;2.50;;;;;;;;;;4940175;28;20050;-70
2022/11/01 13:07:54;;;;;;;18.83;2.15;;;;;;;;;;4957749;28;20371;-70
2022/11/01 13:10:27;;;;;;;15.63;2.75;;;;;;;;;;4960239;28;20397;-72
2022/11/01 13:12:58;;;;;;;23.30;3.67;;;;;;;;;;4939706;28;20173;-72
2022/11/01 13:15:30;;;;;;;15.60;2.55;;;;;;;;;;4939947;28;20541;-71
2022/11/01 13:18:02;;;;;;;18.33;2.95;;;;;;;;;;4944252;28;20054;-71
2022/11/01 13:20:38;;;;;;;21.52;2.67;;;;;;;;;;4963818;28;20078;-70
2022/11/01 13:23:11;;;;;;;13.18;2.05;;;;;;;;;;4938776;28;20055;-70
2022/11/01 13:25:41;;;;;;;17.03;2.40;;;;;;;;;;4960208;28;20136;-71
2022/11/01 13:28:18;;;;;;;15.00;2.55;;;;;;;;;;4964506;28;20313;-70
2022/11/01 13:30:52;;;;;;;14.40;2.13;;;;;;;;;;4960982;28;20078;-71
2022/11/01 13:33:22;;;;;;;13.65;2.05;;;;;;;;;;4962291;28;20070;-72
2022/11/01 13:35:53;;;;;;;13.98;2.28;;;;;;;;;;4959195;28;20139;-69
2022/11/01 13:38:23;;;;;;;15.88;2.67;;;;;;;;;;4943732;28;20066;-69
2022/11/01 13:40:57;;;;;;;17.63;2.70;;;;;;;;;;4951487;28;20070;-72
2022/11/01 13:43:25;;;;;;;16.23;2.92;;;;;;;;;;4941471;28;20047;-72
2022/11/01 13:46:08;;;;;;;13.40;3.30;;;;;;;;;;4925540;28;20058;-72
2022/11/01 13:48:38;;;;;;;15.68;2.60;;;;;;;;;;4926972;29;20059;-71
2022/11/01 13:51:14;;;;;;;18.33;3.05;;;;;;;;;;4929490;29;20047;-70
2022/11/01 13:53:45;;;;;;;12.68;2.20;;;;;;;;;;4949559;28;20531;-72
2022/11/01 13:56:14;;;;;;;15.30;2.10;;;;;;;;;;4946639;28;20056;-71
2022/11/01 13:58:41;;;;;;;9.73;2.03;;;;;;;;;;4932888;28;20335;-72
2022/11/01 14:01:35;;;;;;;12.93;2.13;;;;;;;;;;4941185;28;20056;-70
2022/11/01 14:04:24;;;;;;;16.40;2.08;;;;;;;;;;4908861;29;20057;-72
2022/11/01 14:07:06;;;;;;;10.38;1.75;;;;;;;;;;4938376;28;20063;-72
2022/11/01 14:09:33;;;;;;;13.90;2.05;;;;;;;;;;4948718;28;20472;-72
2022/11/01 14:12:11;;;;;;;9.05;2.28;;;;;;;;;;4945894;28;20059;-72
2022/11/01 14:14:51;;;;;;;12.35;2.40;;;;;;;;;;4936776;28;20086;-69
2022/11/01 14:17:38;;;;;;;11.85;2.63;;;;;;;;;;4951685;28;20508;-71
2022/11/01 14:20:24;;;;;;;9.23;1.98;;;;;;;;;;4919898;29;20063;-71
2022/11/01 14:22:52;;;;;;;14.45;2.30;;;;;;;;;;4953745;28;20067;-72
2022/11/01 14:25:30;;;;;;;11.32;2.42;;;;;;;;;;4948812;28;20051;-70
2022/11/01 14:28:12;;;;;;;14.40;1.77;;;;;;;;;;4944272;28;20054;-70
2022/11/01 14:30:42;;;;;;;10.18;1.55;;;;;;;;;;4949753;28;20055;-69
2022/11/01 14:33:12;;;;;;;16.65;2.75;;;;;;;;;;4947599;28;20098;-70
2022/11/01 14:35:42;;;;;;;10.93;2.08;;;;;;;;;;4927474;29;20051;-72
2022/11/01 14:38:13;;;;;;;11.70;1.95;;;;;;;;;;4938557;28;20051;-70
2022/11/01 14:40:41;;;;;;;11.27;2.17;;;;;;;;;;4947133;28;20651;-71
2022/11/01 14:43:13;;;;;;;8.18;1.63;;;;;;;;;;4949137;28;20058;-71
2022/11/01 14:45:43;;;;;;;14.80;2.35;;;;;;;;;;4947045;28;20498;-71
2022/11/01 14:48:15;;;;;;;16.02;1.90;;;;;;;;;;4949913;28;20069;-72
2022/11/01 14:50:51;;;;;;;16.50;2.15;;;;;;;;;;4945694;28;20052;-71
2022/11/01 14:53:23;;;;;;;9.80;1.50;;;;;;;;;;4945698;28;20059;-71